Time;durP1;ratioP1;P1;durP2;ratioP2;P2;SDS_P1;SDS_P2;PMS_P1;PMS_P2;Temp;Humidity;BMP_temperature;BMP_pressure;BME280_temperature;BME280_humidity;BME280_pressure;Samples;Min_cycle;Max_cycle;Signal;HPM_P1;HPM_P2
2022/08/08 00:02:37;;;;;;;;;;;;;;;16.19;47.79492;102641.5;;;;-74
2022/08/08 00:07:40;;;;;;;;;;;;;;;16.13;47.8457;102642.4;;;;-74
2022/08/08 00:12:36;;;;;;;;;;;;;;;16.09;47.79492;102641.9;;;;-75
2022/08/08 00:17:42;;;;;;;;;;;;;;;16.03;47.99414;102646.2;;;;-74
2022/08/08 00:20:13;;;;;;;2.8;1.4;;;;;;;;;;;;;-74
2022/08/08 00:22:39;;;;;;;;;;;;;;;16.01;48.12695;102644.8;;;;-73
2022/08/08 00:27:34;;;;;;;;;;;;;;;15.94;48.42383;102648.5;;;;-74
2022/08/08 00:32:38;;;;;;;;;;;;;;;15.92;48.5791;102640;;;;-75
2022/08/08 00:37:40;;;;;;;;;;;;;;;15.86;48.61816;102644.1;;;;-73
2022/08/08 00:42:45;;;;;;;;;;;;;;;15.82;48.68262;102639.1;;;;-73
2022/08/08 00:47:51;;;;;;;;;;;;;;;15.74;48.76367;102629.6;;;;-73
2022/08/08 00:50:27;;;;;;;4.7;1.7;;;;;;;;;;;;;-72
2022/08/08 00:52:41;;;;;;;;;;;;;;;15.72;48.76074;102611.6;;;;-71
2022/08/08 00:57:52;;;;;;;;;;;;;;;15.68;48.56543;102606.5;;;;-74
2022/08/08 01:02:50;;;;;;;;;;;;;;;15.67;48.5752;102622;;;;-74
2022/08/08 01:07:53;;;;;;;;;;;;;;;15.65;48.5957;102627.7;;;;-74
2022/08/08 01:12:48;;;;;;;;;;;;;;;15.6;48.94043;102622.1;;;;-74
2022/08/08 01:17:47;;;;;;;;;;;;;;;15.57;49.10645;102618.1;;;;-72
2022/08/08 01:20:26;;;;;;;2.6;1.5;;;;;;;;;;;;;-74
2022/08/08 01:22:44;;;;;;;;;;;;;;;15.55;49.1377;102612.7;;;;-70
2022/08/08 01:27:45;;;;;;;;;;;;;;;15.5;49.18945;102617.4;;;;-73
2022/08/08 01:33:00;;;;;;;;;;;;;;;15.47;49.12891;102619.7;;;;-73
2022/08/08 01:37:45;;;;;;;;;;;;;;;15.42;49.22461;102618.1;;;;-74
2022/08/08 01:42:37;;;;;;;;;;;;;;;15.39;49.15332;102626;;;;-74
2022/08/08 01:47:41;;;;;;;;;;;;;;;15.37;49.27539;102630.6;;;;-72
2022/08/08 01:50:24;;;;;;;3.2;1.6;;;;;;;;;;;;;-74
2022/08/08 01:52:40;;;;;;;;;;;;;;;15.32;49.38281;102620.4;;;;-74
2022/08/08 01:57:38;;;;;;;;;;;;;;;15.29;49.50391;102619.8;;;;-74
2022/08/08 02:02:41;;;;;;;;;;;;;;;15.26;49.54688;102626.8;;;;-73
2022/08/08 02:07:42;;;;;;;;;;;;;;;15.23;49.56445;102629;;;;-73
2022/08/08 02:12:37;;;;;;;;;;;;;;;15.18;49.59375;102625.3;;;;-74
2022/08/08 02:17:37;;;;;;;;;;;;;;;15.15;49.65723;102621.1;;;;-73
2022/08/08 02:20:24;;;;;;;3.7;1.7;;;;;;;;;;;;;-73
2022/08/08 02:22:37;;;;;;;;;;;;;;;15.12;49.63184;102618.1;;;;-74
2022/08/08 02:27:37;;;;;;;;;;;;;;;15.1;49.57227;102626.1;;;;-73
2022/08/08 02:32:42;;;;;;;;;;;;;;;15.03;49.62207;102627.3;;;;-74
2022/08/08 02:37:42;;;;;;;;;;;;;;;15;49.69629;102637.9;;;;-74
2022/08/08 02:42:57;;;;;;;;;;;;;;;14.98;49.79688;102638.5;;;;-73
2022/08/08 02:47:56;;;;;;;;;;;;;;;14.93;49.8584;102632.4;;;;-74
2022/08/08 02:50:40;;;;;;;2.3;1.4;;;;;;;;;;;;;-73
2022/08/08 02:52:45;;;;;;;;;;;;;;;14.86;49.89551;102634.6;;;;-73
2022/08/08 02:58:00;;;;;;;;;;;;;;;14.88;49.9541;102644;;;;-73
2022/08/08 03:02:51;;;;;;;;;;;;;;;14.85;50.05176;102644.4;;;;-75
2022/08/08 03:07:56;;;;;;;;;;;;;;;14.82;50.19434;102644.5;;;;-73
2022/08/08 03:12:54;;;;;;;;;;;;;;;14.78;50.38184;102651.3;;;;-73
2022/08/08 03:17:36;;;;;;;;;;;;;;;14.75;50.39063;102652.9;;;;-74
2022/08/08 03:20:18;;;;;;;2.9;1.6;;;;;;;;;;;;;-74
2022/08/08 03:22:30;;;;;;;;;;;;;;;14.74;50.55859;102652.1;;;;-73
2022/08/08 03:27:37;;;;;;;;;;;;;;;14.75;50.60449;102652.7;;;;-74
2022/08/08 03:37:34;;;;;;;;;;;;;;;14.83;50.39941;102664;;;;-73
2022/08/08 03:42:34;;;;;;;;;;;;;;;14.85;50.25488;102662.3;;;;-74
2022/08/08 03:47:34;;;;;;;;;;;;;;;14.84;50.19727;102660.1;;;;-74
2022/08/08 03:50:24;;;;;;;3;1.5;;;;;;;;;;;;;-73
2022/08/08 03:52:34;;;;;;;;;;;;;;;14.87;50.08789;102665.7;;;;-74
2022/08/08 03:57:35;;;;;;;;;;;;;;;14.89;49.93359;102666.5;;;;-72
2022/08/08 04:02:34;;;;;;;;;;;;;;;14.88;49.96582;102666;;;;-74
2022/08/08 04:07:37;;;;;;;;;;;;;;;14.86;50.06543;102668.6;;;;-74
2022/08/08 04:12:34;;;;;;;;;;;;;;;14.86;50.11035;102674.5;;;;-73
2022/08/08 04:17:34;;;;;;;;;;;;;;;14.84;50.1416;102678.9;;;;-73
2022/08/08 04:20:25;;;;;;;3.1;1.5;;;;;;;;;;;;;-74
2022/08/08 04:22:34;;;;;;;;;;;;;;;14.86;50.14355;102687.7;;;;-74
2022/08/08 04:27:34;;;;;;;;;;;;;;;14.88;50.01172;102685.9;;;;-74
2022/08/08 04:32:34;;;;;;;;;;;;;;;14.92;50.13867;102683.5;;;;-74
2022/08/08 04:37:34;;;;;;;;;;;;;;;14.99;50.03516;102688.6;;;;-74
2022/08/08 04:42:34;;;;;;;;;;;;;;;15.05;49.96191;102687.8;;;;-74
2022/08/08 04:47:34;;;;;;;;;;;;;;;15.14;49.83691;102688.5;;;;-74
2022/08/08 04:50:28;;;;;;;3.6;1.7;;;;;;;;;;;;;-74
2022/08/08 04:52:34;;;;;;;;;;;;;;;15.22;49.72168;102686.6;;;;-73
2022/08/08 04:57:34;;;;;;;;;;;;;;;15.3;49.68555;102685.2;;;;-73
2022/08/08 05:02:34;;;;;;;;;;;;;;;15.39;49.91016;102694.9;;;;-75
2022/08/08 05:07:34;;;;;;;;;;;;;;;15.45;50.29004;102694.3;;;;-74
2022/08/08 05:12:34;;;;;;;;;;;;;;;15.5;50.23926;102695.4;;;;-74
2022/08/08 05:17:34;;;;;;;;;;;;;;;15.57;50.16797;102701.6;;;;-74
2022/08/08 05:20:29;;;;;;;3;1.5;;;;;;;;;;;;;-73
2022/08/08 05:22:34;;;;;;;;;;;;;;;15.64;50.05176;102699;;;;-73
2022/08/08 05:27:34;;;;;;;;;;;;;;;15.74;49.90527;102702.1;;;;-74
2022/08/08 05:32:34;;;;;;;;;;;;;;;15.85;49.91602;102708;;;;-74
2022/08/08 05:37:34;;;;;;;;;;;;;;;15.94;49.71289;102703.7;;;;-73
2022/08/08 05:42:37;;;;;;;;;;;;;;;16.03;49.65527;102710.5;;;;-73
2022/08/08 05:47:34;;;;;;;;;;;;;;;16.12;49.59766;102713.2;;;;-75
2022/08/08 05:50:32;;;;;;;3.1;1.6;;;;;;;;;;;;;-73
2022/08/08 05:52:35;;;;;;;;;;;;;;;16.22;49.45117;102714;;;;-73
2022/08/08 05:57:36;;;;;;;;;;;;;;;16.31;49.42676;102714.2;;;;-74
2022/08/08 06:07:35;;;;;;;;;;;;;;;16.63;49.13379;102718.2;;;;-74
2022/08/08 06:12:35;;;;;;;;;;;;;;;16.75;49.03418;102721.5;;;;-73
2022/08/08 06:17:34;;;;;;;;;;;;;;;16.87;48.94531;102722.5;;;;-74
2022/08/08 06:20:34;;;;;;;3.7;1.4;;;;;;;;;;;;;-74
2022/08/08 06:22:34;;;;;;;;;;;;;;;16.97;48.67285;102723.5;;;;-74
2022/08/08 06:27:39;;;;;;;;;;;;;;;17.09;48.51563;102720.3;;;;-76
2022/08/08 06:32:34;;;;;;;;;;;;;;;17.24;48.33887;102724.6;;;;-75
2022/08/08 06:37:35;;;;;;;;;;;;;;;17.38;48.11719;102721.9;;;;-74
2022/08/08 06:42:36;;;;;;;;;;;;;;;17.52;48.17676;102730.4;;;;-74
2022/08/08 06:47:34;;;;;;;;;;;;;;;17.65;47.9873;102733;;;;-74
2022/08/08 06:50:35;;;;;;;3;1.4;;;;;;;;;;;;;-74
2022/08/08 06:52:34;;;;;;;;;;;;;;;17.76;48.24902;102734.5;;;;-74
2022/08/08 06:57:34;;;;;;;;;;;;;;;17.86;48.11133;102734.7;;;;-74
2022/08/08 07:02:35;;;;;;;;;;;;;;;17.96;48.24707;102736.2;;;;-73
2022/08/08 07:07:36;;;;;;;;;;;;;;;18.07;48.20313;102731.8;;;;-73
2022/08/08 07:12:38;;;;;;;;;;;;;;;18.19;48.12598;102735.9;;;;-76
2022/08/08 07:17:36;;;;;;;;;;;;;;;18.33;48.10645;102739.3;;;;-75
2022/08/08 07:20:39;;;;;;;2.4;1.2;;;;;;;;;;;;;-75
2022/08/08 07:22:38;;;;;;;;;;;;;;;18.51;47.97754;102741.6;;;;-74
2022/08/08 07:27:38;;;;;;;;;;;;;;;18.69;47.65723;102743;;;;-75
2022/08/08 07:32:34;;;;;;;;;;;;;;;18.94;47.2041;102747.4;;;;-74
2022/08/08 07:37:34;;;;;;;;;;;;;;;19.21;46.66309;102752.7;;;;-76
2022/08/08 07:42:35;;;;;;;;;;;;;;;19.5;46.26074;102753.7;;;;-76
2022/08/08 07:47:34;;;;;;;;;;;;;;;19.78;45.87891;102761;;;;-76
2022/08/08 07:50:41;;;;;;;3;1.2;;;;;;;;;;;;;-77
2022/08/08 07:52:34;;;;;;;;;;;;;;;20.1;45.82031;102761.5;;;;-74
2022/08/08 07:57:41;;;;;;;;;;;;;;;20.62;45.46191;102760.2;;;;-72
2022/08/08 08:02:39;;;;;;;;;;;;;;;21.34;45.07813;102760;;;;-74
2022/08/08 08:07:35;;;;;;;;;;;;;;;22.14;44.06738;102756.1;;;;-74
2022/08/08 08:12:34;;;;;;;;;;;;;;;22.92;43.07324;102763;;;;-74
2022/08/08 08:17:34;;;;;;;;;;;;;;;23.6;42.8623;102767.6;;;;-77
2022/08/08 08:20:43;;;;;;;3.4;1.4;;;;;;;;;;;;;-74
2022/08/08 08:22:35;;;;;;;;;;;;;;;24.25;41.89844;102771;;;;-72
2022/08/08 08:27:34;;;;;;;;;;;;;;;24.86;41.12207;102772.2;;;;-74
2022/08/08 08:32:34;;;;;;;;;;;;;;;25.41;40.81445;102776.2;;;;-75
2022/08/08 08:37:36;;;;;;;;;;;;;;;25.96;39.98145;102769.6;;;;-74
2022/08/08 08:42:34;;;;;;;;;;;;;;;26.3;39.38574;102771.2;;;;-75
2022/08/08 08:47:35;;;;;;;;;;;;;;;26.26;39.39355;102773.6;;;;-74
2022/08/08 08:50:47;;;;;;;4.1;1.3;;;;;;;;;;;;;-74
2022/08/08 08:52:34;;;;;;;;;;;;;;;26.23;40.01758;102775.7;;;;-74
2022/08/08 08:57:35;;;;;;;;;;;;;;;26.55;39.61719;102782.5;;;;-74
2022/08/08 09:02:37;;;;;;;;;;;;;;;27.09;39.0127;102783;;;;-74
2022/08/08 09:07:36;;;;;;;;;;;;;;;27.69;38.22656;102785.7;;;;-73
2022/08/08 09:12:36;;;;;;;;;;;;;;;28.17;37.48633;102789.1;;;;-75
2022/08/08 09:17:34;;;;;;;;;;;;;;;28.29;37.25098;102781.7;;;;-75
2022/08/08 09:20:51;;;;;;;2.8;1.1;;;;;;;;;;;;;-75
2022/08/08 09:22:34;;;;;;;;;;;;;;;28.68;37.16602;102785.4;;;;-75
2022/08/08 09:27:35;;;;;;;;;;;;;;;29.22;36.46191;102787.5;;;;-75
2022/08/08 09:32:39;;;;;;;;;;;;;;;29.63;35.54688;102785.3;;;;-77
2022/08/08 09:37:38;;;;;;;;;;;;;;;29.63;35.14941;102792.4;;;;-76
2022/08/08 09:42:37;;;;;;;;;;;;;;;29.5;35.03418;102795.3;;;;-76
2022/08/08 09:47:34;;;;;;;;;;;;;;;29.32;34.9375;102790.5;;;;-76
2022/08/08 09:50:55;;;;;;;2.2;1.1;;;;;;;;;;;;;-76
2022/08/08 09:52:36;;;;;;;;;;;;;;;29.06;35.39746;102793.2;;;;-76
2022/08/08 09:57:36;;;;;;;;;;;;;;;28.78;35.72559;102791.4;;;;-76
2022/08/08 10:02:39;;;;;;;;;;;;;;;28.57;36.0127;102794.6;;;;-75
2022/08/08 10:07:34;;;;;;;;;;;;;;;28.41;36.36133;102798.5;;;;-75
2022/08/08 10:12:42;;;;;;;;;;;;;;;28.3;36.62109;102803.1;;;;-75
2022/08/08 10:17:34;;;;;;;;;;;;;;;28.23;36.94238;102802.5;;;;-75
2022/08/08 10:21:04;;;;;;;4;1.3;;;;;;;;;;;;;-74
2022/08/08 10:22:34;;;;;;;;;;;;;;;28.46;37.28809;102799;;;;-75
2022/08/08 10:27:43;;;;;;;;;;;;;;;28.96;36.76855;102799;;;;-75
2022/08/08 10:32:40;;;;;;;;;;;;;;;29.23;35.83105;102795;;;;-74
2022/08/08 10:37:35;;;;;;;;;;;;;;;29.24;35.62109;102799.2;;;;-74
2022/08/08 10:42:39;;;;;;;;;;;;;;;29.1;35.42285;102802.4;;;;-74
2022/08/08 10:47:34;;;;;;;;;;;;;;;28.88;35.41797;102798;;;;-75
2022/08/08 10:51:13;;;;;;;4;1.4;;;;;;;;;;;;;-75
2022/08/08 10:52:35;;;;;;;;;;;;;;;28.6;35.66406;102798.7;;;;-74
2022/08/08 10:57:34;;;;;;;;;;;;;;;28.27;36.30469;102796;;;;-75
2022/08/08 11:02:35;;;;;;;;;;;;;;;27.97;36.75781;102793;;;;-75
2022/08/08 11:07:35;;;;;;;;;;;;;;;27.67;37.24609;102792.1;;;;-75
2022/08/08 11:12:34;;;;;;;;;;;;;;;27.41;37.69043;102796.7;;;;-74
2022/08/08 11:17:35;;;;;;;;;;;;;;;27.18;38.03223;102796.5;;;;-75
2022/08/08 11:21:09;;;;;;;2.5;1.4;;;;;;;;;;;;;-74
2022/08/08 11:22:35;;;;;;;;;;;;;;;27.05;38.45117;102800;;;;-75
2022/08/08 11:27:35;;;;;;;;;;;;;;;26.99;38.65527;102799.6;;;;-74
2022/08/08 11:32:34;;;;;;;;;;;;;;;26.94;38.60449;102801.7;;;;-73
2022/08/08 11:37:34;;;;;;;;;;;;;;;26.93;38.61523;102805.3;;;;-73
2022/08/08 11:42:34;;;;;;;;;;;;;;;26.94;38.67383;102800.4;;;;-74
2022/08/08 11:47:34;;;;;;;;;;;;;;;26.99;38.5166;102799;;;;-74
2022/08/08 11:51:12;;;;;;;4.2;1.3;;;;;;;;;;;;;-75
2022/08/08 11:52:35;;;;;;;;;;;;;;;27.08;38.38379;102795.1;;;;-74
2022/08/08 11:57:34;;;;;;;;;;;;;;;27.22;38.2334;102790.9;;;;-75
2022/08/08 12:02:34;;;;;;;;;;;;;;;27.36;37.91895;102787.5;;;;-74
2022/08/08 12:07:34;;;;;;;;;;;;;;;27.45;37.77539;102786.7;;;;-74
2022/08/08 12:12:43;;;;;;;;;;;;;;;27.46;37.64746;102787.3;;;;-74
2022/08/08 12:17:43;;;;;;;;;;;;;;;27.45;37.64648;102792.7;;;;-75
2022/08/08 12:21:22;;;;;;;2.3;1.3;;;;;;;;;;;;;-75
2022/08/08 12:22:35;;;;;;;;;;;;;;;27.41;37.76074;102787;;;;-75
2022/08/08 12:27:42;;;;;;;;;;;;;;;27.33;37.84668;102781.8;;;;-74
2022/08/08 12:32:43;;;;;;;;;;;;;;;27.22;37.96582;102780.3;;;;-74
2022/08/08 12:37:35;;;;;;;;;;;;;;;27.08;38.25684;102780.2;;;;-74
2022/08/08 12:42:34;;;;;;;;;;;;;;;26.93;38.53516;102780.6;;;;-75
2022/08/08 12:47:34;;;;;;;;;;;;;;;26.8;38.66211;102779.7;;;;-75
2022/08/08 12:51:27;;;;;;;2.4;1.3;;;;;;;;;;;;;-74
2022/08/08 12:52:38;;;;;;;;;;;;;;;26.7;38.83984;102780.9;;;;-74
2022/08/08 12:57:34;;;;;;;;;;;;;;;26.64;38.99707;102779.8;;;;-77
2022/08/08 13:02:35;;;;;;;;;;;;;;;26.63;39.1123;102776.5;;;;-74
2022/08/08 13:07:40;;;;;;;;;;;;;;;26.68;39.07031;102778.8;;;;-74
2022/08/08 13:12:35;;;;;;;;;;;;;;;26.8;39.03418;102774.5;;;;-73
2022/08/08 13:17:34;;;;;;;;;;;;;;;27.17;39.11328;102767.7;;;;-76
2022/08/08 13:21:24;;;;;;;2.2;1.2;;;;;;;;;;;;;-75
2022/08/08 13:22:37;;;;;;;;;;;;;;;27.61;38.99902;102768.1;;;;-74
2022/08/08 13:27:34;;;;;;;;;;;;;;;27.97;38.49512;102780.3;;;;-75
2022/08/08 13:32:37;;;;;;;;;;;;;;;28.08;38.16602;102775.8;;;;-74
2022/08/08 13:37:34;;;;;;;;;;;;;;;28.06;38.21094;102773;;;;-74
2022/08/08 13:42:34;;;;;;;;;;;;;;;27.98;38.05273;102769;;;;-76
2022/08/08 13:47:35;;;;;;;;;;;;;;;28.09;38.0625;102768.1;;;;-75
2022/08/08 13:51:29;;;;;;;2.9;1;;;;;;;;;;;;;-74
2022/08/08 13:52:34;;;;;;;;;;;;;;;28.42;38.54492;102769.2;;;;-75
2022/08/08 13:57:34;;;;;;;;;;;;;;;28.69;37.59863;102768.4;;;;-74
2022/08/08 14:02:34;;;;;;;;;;;;;;;28.81;37.60938;102766.6;;;;-75
2022/08/08 14:07:34;;;;;;;;;;;;;;;28.86;37.21582;102757.2;;;;-75
2022/08/08 14:12:34;;;;;;;;;;;;;;;28.89;37.07715;102755.8;;;;-75
2022/08/08 14:17:34;;;;;;;;;;;;;;;28.96;37.5166;102762.6;;;;-76
2022/08/08 14:21:42;;;;;;;2.2;1.1;;;;;;;;;;;;;-74
2022/08/08 14:22:34;;;;;;;;;;;;;;;28.98;37.59961;102763.8;;;;-72
2022/08/08 14:27:34;;;;;;;;;;;;;;;28.92;37.25586;102770.1;;;;-75
2022/08/08 14:32:34;;;;;;;;;;;;;;;28.81;37.07129;102774.6;;;;-76
2022/08/08 14:37:34;;;;;;;;;;;;;;;28.65;37.21094;102774.4;;;;-74
2022/08/08 14:42:38;;;;;;;;;;;;;;;28.47;37.18359;102773.8;;;;-75
2022/08/08 14:47:34;;;;;;;;;;;;;;;28.27;37.28418;102774;;;;-76
2022/08/08 14:51:45;;;;;;;2.2;1.1;;;;;;;;;;;;;-75
2022/08/08 14:52:41;;;;;;;;;;;;;;;28.09;37.52539;102767.3;;;;-75
2022/08/08 14:57:34;;;;;;;;;;;;;;;27.97;37.70215;102761.8;;;;-75
2022/08/08 15:02:34;;;;;;;;;;;;;;;28.11;37.87793;102754.6;;;;-75
2022/08/08 15:07:34;;;;;;;;;;;;;;;28.52;38.4248;102755.5;;;;-75
2022/08/08 15:12:34;;;;;;;;;;;;;;;28.99;38.00977;102755.7;;;;-75
2022/08/08 15:17:34;;;;;;;;;;;;;;;29.17;37.19434;102759;;;;-76
2022/08/08 15:21:43;;;;;;;2.7;1.1;;;;;;;;;;;;;-76
2022/08/08 15:22:34;;;;;;;;;;;;;;;29.09;36.97754;102755.1;;;;-75
2022/08/08 15:27:34;;;;;;;;;;;;;;;28.86;37.13379;102753.5;;;;-76
2022/08/08 15:32:34;;;;;;;;;;;;;;;28.61;37.10156;102751;;;;-76
2022/08/08 15:37:33;;;;;;;;;;;;;;;28.36;37.44336;102747.4;;;;-76
2022/08/08 15:42:34;;;;;;;;;;;;;;;28.15;37.76367;102750.9;;;;-74
2022/08/08 15:47:34;;;;;;;;;;;;;;;27.98;38.08691;102751.5;;;;-75
2022/08/08 15:51:46;;;;;;;3.6;1.2;;;;;;;;;;;;;-76
2022/08/08 15:52:34;;;;;;;;;;;;;;;27.79;38.36328;102756.3;;;;-75
2022/08/08 15:57:34;;;;;;;;;;;;;;;27.56;38.79785;102758.6;;;;-76
2022/08/08 16:02:34;;;;;;;;;;;;;;;27.33;38.97559;102755.6;;;;-75
2022/08/08 16:07:34;;;;;;;;;;;;;;;27.13;39.30664;102751.7;;;;-75
2022/08/08 16:12:34;;;;;;;;;;;;;;;26.95;39.58301;102751.7;;;;-75
2022/08/08 16:17:34;;;;;;;;;;;;;;;26.84;39.46875;102745.8;;;;-74
2022/08/08 16:21:51;;;;;;;2.9;1.3;;;;;;;;;;;;;-74
2022/08/08 16:22:34;;;;;;;;;;;;;;;26.91;39.01953;102744.5;;;;-73
2022/08/08 16:27:34;;;;;;;;;;;;;;;26.97;39.07227;102746.9;;;;-74
2022/08/08 16:32:34;;;;;;;;;;;;;;;26.95;39.1875;102743.8;;;;-75
2022/08/08 16:37:34;;;;;;;;;;;;;;;26.94;39.2793;102743.1;;;;-75
2022/08/08 16:42:34;;;;;;;;;;;;;;;27.02;39.74023;102742.4;;;;-75
2022/08/08 16:47:34;;;;;;;;;;;;;;;27.1;40.06055;102741.6;;;;-77
2022/08/08 16:51:55;;;;;;;2.4;1.2;;;;;;;;;;;;;-76
2022/08/08 16:52:34;;;;;;;;;;;;;;;27.18;39.90527;102733.9;;;;-75
2022/08/08 16:57:34;;;;;;;;;;;;;;;27.25;39.91016;102730.2;;;;-76
2022/08/08 17:02:34;;;;;;;;;;;;;;;27.31;39.99805;102733.3;;;;-77
2022/08/08 17:07:34;;;;;;;;;;;;;;;27.31;39.85742;102734.1;;;;-77
2022/08/08 17:12:34;;;;;;;;;;;;;;;27.3;39.76367;102739.8;;;;-77
2022/08/08 17:17:34;;;;;;;;;;;;;;;27.29;39.76367;102745.5;;;;-77
2022/08/08 17:21:59;;;;;;;2.2;1.2;;;;;;;;;;;;;-77
2022/08/08 17:22:34;;;;;;;;;;;;;;;27.22;39.76855;102749.8;;;;-77
2022/08/08 17:27:33;;;;;;;;;;;;;;;27.14;39.78418;102754.4;;;;-75
2022/08/08 17:32:34;;;;;;;;;;;;;;;27.04;39.75293;102755.5;;;;-75
2022/08/08 17:37:34;;;;;;;;;;;;;;;26.9;39.90332;102756.9;;;;-74
2022/08/08 17:42:34;;;;;;;;;;;;;;;26.75;40.22754;102766.6;;;;-75
2022/08/08 17:47:36;;;;;;;;;;;;;;;26.58;40.60547;102777.9;;;;-75
2022/08/08 17:52:03;;;;;;;3.9;1.3;;;;;;;;;;;;;-75
2022/08/08 17:52:34;;;;;;;;;;;;;;;26.39;40.79785;102776.2;;;;-74
2022/08/08 17:57:34;;;;;;;;;;;;;;;26.24;40.95801;102782.8;;;;-74
2022/08/08 18:02:34;;;;;;;;;;;;;;;26.05;41.11523;102788.3;;;;-77
2022/08/08 18:07:34;;;;;;;;;;;;;;;25.86;41.3877;102796.8;;;;-74
2022/08/08 18:12:33;;;;;;;;;;;;;;;25.68;41.52148;102804.3;;;;-75
2022/08/08 18:17:33;;;;;;;;;;;;;;;25.47;41.64258;102803.8;;;;-75
2022/08/08 18:22:08;;;;;;;2.7;1.2;;;;;;;;;;;;;-75
2022/08/08 18:22:34;;;;;;;;;;;;;;;25.28;41.85547;102802.6;;;;-75
2022/08/08 18:27:33;;;;;;;;;;;;;;;25.07;41.87012;102808.2;;;;-76
2022/08/08 18:32:34;;;;;;;;;;;;;;;24.85;41.89648;102806;;;;-76
2022/08/08 18:37:34;;;;;;;;;;;;;;;24.63;42.04883;102803;;;;-75
2022/08/08 18:42:35;;;;;;;;;;;;;;;24.39;42.23438;102805.3;;;;-75
2022/08/08 18:47:34;;;;;;;;;;;;;;;24.16;42.15527;102805.5;;;;-76
2022/08/08 18:52:12;;;;;;;2.5;1.2;;;;;;;;;;;;;-73
2022/08/08 18:52:35;;;;;;;;;;;;;;;23.93;42.2373;102809.2;;;;-75
2022/08/08 18:57:34;;;;;;;;;;;;;;;23.69;42.43359;102813.3;;;;-75
2022/08/08 19:02:34;;;;;;;;;;;;;;;23.45;42.35352;102826.5;;;;-76
2022/08/08 19:07:34;;;;;;;;;;;;;;;23.21;42.70996;102829.6;;;;-74
2022/08/08 19:12:33;;;;;;;;;;;;;;;22.94;42.73145;102834.7;;;;-76
2022/08/08 19:17:35;;;;;;;;;;;;;;;22.7;43.0752;102841.8;;;;-74
2022/08/08 19:22:15;;;;;;;2.2;1.2;;;;;;;;;;;;;-75
2022/08/08 19:22:33;;;;;;;;;;;;;;;22.44;43.60254;102842.4;;;;-75
2022/08/08 19:27:34;;;;;;;;;;;;;;;22.21;44.00586;102851.4;;;;-76
2022/08/08 19:32:34;;;;;;;;;;;;;;;21.97;44.4873;102849.8;;;;-75
2022/08/08 19:37:34;;;;;;;;;;;;;;;21.75;44.91211;102859.6;;;;-74
2022/08/08 19:42:33;;;;;;;;;;;;;;;21.56;45.29395;102859.8;;;;-76
2022/08/08 19:47:33;;;;;;;;;;;;;;;21.34;45.70801;102866.8;;;;-76
2022/08/08 19:52:18;;;;;;;3.5;1.1;;;;;;;;;;;;;-76
2022/08/08 19:52:39;;;;;;;;;;;;;;;21.12;46.1084;102865.4;;;;-74
2022/08/08 19:57:36;;;;;;;;;;;;;;;20.97;46.5166;102873.6;;;;-75
2022/08/08 20:02:34;;;;;;;;;;;;;;;20.79;46.7959;102885;;;;-77
2022/08/08 20:07:33;;;;;;;;;;;;;;;20.62;47.1084;102892.3;;;;-75
2022/08/08 20:12:33;;;;;;;;;;;;;;;20.45;47.25098;102887.5;;;;-75
2022/08/08 20:17:34;;;;;;;;;;;;;;;20.27;47.71191;102887.9;;;;-75
2022/08/08 20:22:21;;;;;;;3;1;;;;;;;;;;;;;-75
2022/08/08 20:22:39;;;;;;;;;;;;;;;20.09;48.11426;102883.4;;;;-75
2022/08/08 20:27:34;;;;;;;;;;;;;;;19.94;48.33789;102887.2;;;;-74
2022/08/08 20:32:34;;;;;;;;;;;;;;;19.81;48.43848;102896.7;;;;-75
2022/08/08 20:37:34;;;;;;;;;;;;;;;19.66;48.76465;102895.1;;;;-75
2022/08/08 20:42:35;;;;;;;;;;;;;;;19.54;48.92188;102897.7;;;;-75
2022/08/08 20:47:34;;;;;;;;;;;;;;;19.39;49.11035;102904.5;;;;-76
2022/08/08 20:52:24;;;;;;;2.6;1.2;;;;;;;;;;;;;-76
2022/08/08 20:52:33;;;;;;;;;;;;;;;19.23;49.26367;102896;;;;-75
2022/08/08 20:57:34;;;;;;;;;;;;;;;19.13;49.49219;102900;;;;-76
2022/08/08 21:02:33;;;;;;;;;;;;;;;19.01;49.55664;102902.4;;;;-74
2022/08/08 21:07:34;;;;;;;;;;;;;;;18.92;49.77539;102902.7;;;;-74
2022/08/08 21:12:37;;;;;;;;;;;;;;;18.84;49.95996;102907.8;;;;-74
2022/08/08 21:17:33;;;;;;;;;;;;;;;18.73;49.95898;102909.9;;;;-75
2022/08/08 21:22:26;;;;;;;2.2;1.2;;;;;;;;;;;;;-74
2022/08/08 21:22:40;;;;;;;;;;;;;;;18.63;50.07227;102913.6;;;;-74
2022/08/08 21:27:34;;;;;;;;;;;;;;;18.53;50.1748;102917.6;;;;-74
2022/08/08 21:32:34;;;;;;;;;;;;;;;18.45;50.17773;102913.8;;;;-76
2022/08/08 21:37:33;;;;;;;;;;;;;;;18.32;50.43555;102911.7;;;;-72
2022/08/08 21:42:34;;;;;;;;;;;;;;;18.27;50.45313;102912.2;;;;-74
2022/08/08 21:47:34;;;;;;;;;;;;;;;18.18;50.56738;102910.2;;;;-74
2022/08/08 21:52:29;;;;;;;2.2;1.2;;;;;;;;;;;;;-74
2022/08/08 21:52:48;;;;;;;;;;;;;;;18.09;50.59082;102896.4;;;;-75
2022/08/08 21:57:34;;;;;;;;;;;;;;;18.02;50.69629;102905.5;;;;-74
2022/08/08 22:02:34;;;;;;;;;;;;;;;17.93;50.74316;102899.9;;;;-74
2022/08/08 22:07:33;;;;;;;;;;;;;;;17.84;50.86914;102897.5;;;;-74
2022/08/08 22:12:33;;;;;;;;;;;;;;;17.75;51.13184;102906;;;;-74
2022/08/08 22:17:33;;;;;;;;;;;;;;;17.7;51.23828;102910.4;;;;-74
2022/08/08 22:22:31;;;;;;;2.9;1.3;;;;;;;;;;;;;-73
2022/08/08 22:22:46;;;;;;;;;;;;;;;17.58;51.27051;102915.2;;;;-73
2022/08/08 22:27:33;;;;;;;;;;;;;;;17.51;51.2627;102924.8;;;;-75
2022/08/08 22:32:33;;;;;;;;;;;;;;;17.44;51.49121;102920.9;;;;-74
2022/08/08 22:37:34;;;;;;;;;;;;;;;17.36;51.54004;102914.3;;;;-74
2022/08/08 22:42:34;;;;;;;;;;;;;;;17.29;51.71289;102912.5;;;;-73
2022/08/08 22:47:34;;;;;;;;;;;;;;;17.23;51.66113;102912.3;;;;-74
2022/08/08 22:52:33;;;;;;;2.7;1.4;;;;;;;;;;;;;-73
2022/08/08 22:52:44;;;;;;;;;;;;;;;17.11;51.84961;102909.3;;;;-72
2022/08/08 22:57:34;;;;;;;;;;;;;;;17.04;52.01172;102923.2;;;;-73
2022/08/08 23:02:33;;;;;;;;;;;;;;;16.97;52.13965;102930.5;;;;-74
2022/08/08 23:07:34;;;;;;;;;;;;;;;16.94;52.10156;102933.4;;;;-74
2022/08/08 23:12:33;;;;;;;;;;;;;;;16.83;52.21387;102932.2;;;;-74
2022/08/08 23:17:33;;;;;;;;;;;;;;;16.76;52.4209;102937.4;;;;-73
2022/08/08 23:22:33;;;;;;;;;;;;;;;16.71;52.41504;102939.4;;;;-73
2022/08/08 23:22:43;;;;;;;2.9;1.4;;;;;;;;;;;;;-73
2022/08/08 23:27:33;;;;;;;;;;;;;;;16.67;52.42188;102941.3;;;;-74
2022/08/08 23:32:33;;;;;;;;;;;;;;;16.63;52.51855;102944.6;;;;-75
2022/08/08 23:37:34;;;;;;;;;;;;;;;16.57;52.35254;102942.7;;;;-75
2022/08/08 23:42:34;;;;;;;;;;;;;;;16.54;52.42871;102936.2;;;;-75
2022/08/08 23:47:33;;;;;;;;;;;;;;;16.5;52.54883;102940.7;;;;-74
2022/08/08 23:52:33;;;;;;;;;;;;;;;16.45;52.57617;102939.7;;;;-74
2022/08/08 23:52:43;;;;;;;2.2;1.4;;;;;;;;;;;;;-74
2022/08/08 23:57:34;;;;;;;;;;;;;;;16.42;52.73145;102936.5;;;;-74
